Time;durP1;ratioP1;P1;durP2;ratioP2;P2;SDS_P1;SDS_P2;PMS_P1;PMS_P2;Temp;Humidity;BMP_temperature;BMP_pressure;BME280_temperature;BME280_humidity;BME280_pressure;Samples;Min_cycle;Max_cycle;Signal;HPM_P1;HPM_P2
2022/04/24 00:01:10;;;;;;;9.18;5.57;;;;;;;9.72;59.88;100339.00;5044510;28;20044;-58
2022/04/24 00:03:35;;;;;;;6.38;4.65;;;;;;;9.48;61.16;100339.69;5044290;28;20081;-58
2022/04/24 00:06:01;;;;;;;6.82;4.97;;;;;;;9.61;60.52;100339.72;5043263;28;20036;-58
2022/04/24 00:08:26;;;;;;;8.63;5.70;;;;;;;9.64;60.46;100335.97;5027541;28;20078;-58
2022/04/24 00:10:53;;;;;;;8.05;4.50;;;;;;;9.76;59.93;100343.16;5061923;28;20491;-58
2022/04/24 00:13:18;;;;;;;6.82;4.70;;;;;;;9.52;60.87;100341.19;5043116;28;20040;-58
2022/04/24 00:15:44;;;;;;;6.45;4.80;;;;;;;9.50;60.86;100336.94;5061531;28;20055;-58
2022/04/24 00:18:09;;;;;;;6.82;4.63;;;;;;;9.47;61.08;100334.47;5058088;28;20524;-58
2022/04/24 00:20:35;;;;;;;6.93;5.10;;;;;;;9.25;62.29;100333.25;5042843;28;20044;-58
2022/04/24 00:23:01;;;;;;;8.07;5.63;;;;;;;9.17;62.80;100324.91;5042940;28;20072;-58
2022/04/24 00:25:26;;;;;;;9.02;6.13;;;;;;;9.09;62.88;100321.91;5044947;28;20048;-58
2022/04/24 00:27:52;;;;;;;7.47;6.20;;;;;;;9.18;62.28;100325.75;5028123;28;20044;-58
2022/04/24 00:30:17;;;;;;;7.55;5.55;;;;;;;9.08;62.76;100326.34;5024285;28;20445;-59
2022/04/24 00:32:43;;;;;;;8.35;6.47;;;;;;;9.06;63.12;100330.06;5042446;28;20040;-58
2022/04/24 00:35:09;;;;;;;7.97;5.80;;;;;;;9.15;62.76;100325.97;5042598;28;20041;-58
2022/04/24 00:37:34;;;;;;;8.63;6.15;;;;;;;9.12;62.82;100320.84;5043214;28;20045;-58
2022/04/24 00:40:00;;;;;;;9.38;6.63;;;;;;;9.03;63.17;100323.13;5044018;28;20032;-58
2022/04/24 00:42:25;;;;;;;10.93;6.45;;;;;;;9.12;62.58;100316.38;5024980;28;20052;-58
2022/04/24 00:44:50;;;;;;;8.85;6.40;;;;;;;9.18;62.57;100321.28;5043518;28;20114;-58
2022/04/24 00:47:30;;;;;;;13.65;6.00;;;;;;;9.05;62.90;100326.56;5025073;28;20033;-58
2022/04/24 00:49:55;;;;;;;9.95;6.72;;;;;;;9.07;63.13;100313.16;5025573;28;20070;-58
2022/04/24 00:52:21;;;;;;;9.80;6.45;;;;;;;8.99;63.24;100320.81;5043429;28;20103;-58
2022/04/24 00:54:46;;;;;;;9.93;6.72;;;;;;;9.02;63.05;100318.78;5042759;28;20095;-58
2022/04/24 00:57:13;;;;;;;11.88;7.93;;;;;;;8.96;63.45;100313.00;5060573;28;20094;-58
2022/04/24 00:59:38;;;;;;;11.55;6.80;;;;;;;8.87;63.73;100306.47;5060916;28;20087;-58
2022/04/24 01:02:08;;;;;;;10.45;6.32;;;;;;;9.06;63.10;100309.66;5062546;28;20040;-58
2022/04/24 01:04:34;;;;;;;10.88;7.22;;;;;;;9.02;62.96;100312.59;5060779;28;20045;-58
2022/04/24 01:07:00;;;;;;;11.13;6.95;;;;;;;8.95;63.57;100306.00;5062387;28;20045;-58
2022/04/24 01:09:26;;;;;;;9.18;6.40;;;;;;;8.84;64.20;100301.38;5044212;28;20040;-58
2022/04/24 01:11:54;;;;;;;11.45;6.88;;;;;;;8.90;63.97;100308.09;5062098;28;20032;-58
2022/04/24 01:14:21;;;;;;;11.38;7.20;;;;;;;8.86;64.17;100306.59;5062471;28;20040;-58
2022/04/24 01:16:47;;;;;;;13.35;7.50;;;;;;;8.97;63.88;100304.94;5062687;28;20071;-59
2022/04/24 01:19:13;;;;;;;9.23;6.70;;;;;;;8.87;64.17;100305.63;5062618;28;20777;-58
2022/04/24 01:21:43;;;;;;;10.50;7.43;;;;;;;8.84;64.57;100303.19;5061872;28;20048;-58
2022/04/24 01:24:09;;;;;;;10.63;6.82;;;;;;;8.78;65.34;100309.72;5062017;28;20067;-58
2022/04/24 01:26:35;;;;;;;13.75;8.05;;;;;;;8.86;64.92;100304.78;5061902;28;20128;-58
2022/04/24 01:29:03;;;;;;;12.77;7.60;;;;;;;8.76;65.49;100312.50;5062823;28;20131;-58
2022/04/24 01:31:28;;;;;;;12.40;6.75;;;;;;;8.75;65.61;100304.63;5043447;28;20048;-58
2022/04/24 01:33:54;;;;;;;12.75;7.13;;;;;;;8.60;66.03;100308.28;5061220;28;20105;-58
2022/04/24 01:36:19;;;;;;;11.45;7.68;;;;;;;8.70;66.04;100306.72;5061627;28;20451;-58
2022/04/24 01:38:45;;;;;;;9.48;6.63;;;;;;;8.62;66.75;100303.69;5061329;28;20060;-58
2022/04/24 01:41:10;;;;;;;11.85;7.90;;;;;;;8.67;66.32;100307.78;5061478;28;20048;-58
2022/04/24 01:43:38;;;;;;;11.30;7.50;;;;;;;8.50;67.28;100311.50;5061150;28;20049;-58
2022/04/24 01:46:05;;;;;;;12.75;8.23;;;;;;;8.49;67.06;100304.50;5061071;28;20041;-58
2022/04/24 01:48:33;;;;;;;12.82;7.95;;;;;;;8.54;67.04;100309.53;5061062;28;20094;-58
2022/04/24 01:50:59;;;;;;;12.18;7.38;;;;;;;8.49;67.36;100308.97;5061669;28;20702;-58
2022/04/24 01:53:25;;;;;;;12.88;7.55;;;;;;;8.53;67.24;100303.34;5060222;28;20098;-58
2022/04/24 01:55:50;;;;;;;10.60;7.03;;;;;;;8.62;67.25;100309.00;5059996;28;20040;-58
2022/04/24 01:58:15;;;;;;;16.30;8.38;;;;;;;8.62;67.40;100311.69;5061818;28;20036;-58
2022/04/24 02:00:41;;;;;;;12.40;7.90;;;;;;;8.69;66.97;100302.38;5061471;28;20493;-58
2022/04/24 02:03:06;;;;;;;11.68;7.55;;;;;;;8.53;67.66;100308.66;5043582;28;20045;-58
2022/04/24 02:05:32;;;;;;;12.43;7.78;;;;;;;8.57;67.79;100311.97;5061370;28;20041;-58
2022/04/24 02:07:57;;;;;;;13.10;7.95;;;;;;;8.50;68.42;100310.66;5043481;28;20045;-59
2022/04/24 02:10:22;;;;;;;13.88;8.07;;;;;;;8.52;68.15;100314.91;5062260;28;20055;-58
2022/04/24 02:12:48;;;;;;;12.18;7.22;;;;;;;8.38;68.97;100314.06;5062232;28;20725;-59
2022/04/24 02:15:13;;;;;;;11.77;7.53;;;;;;;8.53;68.30;100311.31;5061411;28;20045;-58
2022/04/24 02:17:39;;;;;;;12.77;7.85;;;;;;;8.54;68.72;100313.03;5061663;28;20048;-58
2022/04/24 02:20:05;;;;;;;10.43;7.45;;;;;;;8.44;68.84;100313.72;5061935;28;20043;-58
2022/04/24 02:22:32;;;;;;;14.77;7.70;;;;;;;8.45;69.09;100315.41;5060845;28;20047;-59
2022/04/24 02:24:57;;;;;;;12.68;7.80;;;;;;;8.50;69.00;100305.34;5061582;28;20487;-58
2022/04/24 02:27:23;;;;;;;11.43;7.82;;;;;;;8.46;69.13;100307.34;5043535;28;20046;-58
2022/04/24 02:29:48;;;;;;;15.20;8.38;;;;;;;8.36;69.50;100307.97;5043275;28;20048;-58
2022/04/24 02:32:13;;;;;;;12.02;7.35;;;;;;;8.36;69.66;100311.53;5061834;28;20033;-57
2022/04/24 02:34:39;;;;;;;9.40;6.88;;;;;;;8.33;69.95;100316.97;5061715;28;20033;-58
2022/04/24 02:37:04;;;;;;;13.77;8.32;;;;;;;8.31;69.89;100303.81;5042861;28;20052;-63
2022/04/24 02:39:30;;;;;;;14.63;7.65;;;;;;;8.34;70.06;100312.56;5061622;28;20504;-58
2022/04/24 02:41:55;;;;;;;11.00;6.53;;;;;;;8.44;69.19;100305.75;5061734;28;20055;-58
2022/04/24 02:44:20;;;;;;;11.02;7.38;;;;;;;8.26;70.20;100310.34;5061899;28;20055;-58
2022/04/24 02:46:46;;;;;;;10.30;7.15;;;;;;;8.34;70.19;100315.22;5062432;28;20082;-58
2022/04/24 02:49:12;;;;;;;11.40;7.50;;;;;;;8.40;69.72;100309.53;5062469;28;20055;-58
2022/04/24 02:51:38;;;;;;;14.20;6.80;;;;;;;8.35;69.81;100308.94;5063187;28;20083;-58
2022/04/24 02:54:03;;;;;;;15.05;7.93;;;;;;;8.26;70.08;100313.00;5045124;28;20036;-58
2022/04/24 02:56:29;;;;;;;12.98;7.65;;;;;;;8.18;70.98;100312.63;5063244;28;20829;-58
2022/04/24 02:58:55;;;;;;;15.52;6.97;;;;;;;8.32;70.23;100310.81;5064071;28;20579;-58
2022/04/24 03:01:22;;;;;;;11.48;7.25;;;;;;;8.29;70.22;100307.53;5065348;28;20047;-58
2022/04/24 03:03:49;;;;;;;11.52;7.05;;;;;;;8.14;70.93;100317.28;5045301;28;20044;-58
2022/04/24 03:06:15;;;;;;;10.18;6.53;;;;;;;8.15;71.00;100315.50;5060622;28;20166;-58
2022/04/24 03:08:41;;;;;;;13.18;8.05;;;;;;;8.18;70.78;100318.81;5061999;28;20197;-58
2022/04/24 03:11:06;;;;;;;9.80;7.03;;;;;;;8.13;70.47;100317.38;5059781;28;20037;-59
2022/04/24 03:13:31;;;;;;;9.43;6.47;;;;;;;8.02;71.20;100324.19;5060987;28;20044;-58
2022/04/24 03:15:57;;;;;;;11.38;7.45;;;;;;;7.96;71.66;100319.25;5060867;28;20095;-58
2022/04/24 03:18:22;;;;;;;15.88;7.95;;;;;;;7.85;71.46;100315.56;5042680;28;20036;-58
2022/04/24 03:20:48;;;;;;;11.05;7.03;;;;;;;7.98;70.95;100317.38;5059286;28;20036;-58
2022/04/24 03:23:13;;;;;;;10.82;6.63;;;;;;;7.99;70.95;100321.75;5059648;28;20043;-58
2022/04/24 03:25:38;;;;;;;11.80;6.68;;;;;;;7.93;71.08;100319.47;5059936;28;20060;-58
2022/04/24 03:28:04;;;;;;;15.10;7.80;;;;;;;7.75;72.18;100332.03;5060651;28;20036;-58
2022/04/24 03:30:29;;;;;;;11.77;6.97;;;;;;;7.74;72.27;100325.03;5043070;28;20029;-58
2022/04/24 03:32:55;;;;;;;17.15;7.93;;;;;;;7.67;72.61;100328.13;5061989;28;20044;-59
2022/04/24 03:35:20;;;;;;;10.82;6.70;;;;;;;7.65;72.01;100330.88;5064431;28;20048;-59
2022/04/24 03:37:46;;;;;;;11.05;7.10;;;;;;;7.71;72.08;100321.69;5065923;28;20036;-58
2022/04/24 03:40:13;;;;;;;11.02;6.78;;;;;;;7.70;72.16;100322.66;5078595;28;20073;-58
2022/04/24 03:42:38;;;;;;;10.02;6.50;;;;;;;7.76;71.26;100328.44;5063651;28;20064;-58
2022/04/24 03:45:11;;;;;;;10.15;6.57;;;;;;;7.66;72.17;100331.72;5064525;28;20036;-58
2022/04/24 03:47:36;;;;;;;;;;;;;;;7.71;72.13;100321.69;5064598;28;20050;-58
2022/04/24 03:50:02;;;;;;;10.38;6.80;;;;;;;7.60;72.22;100326.78;5063579;28;19916;-58
2022/04/24 03:52:27;;;;;;;11.73;6.68;;;;;;;7.52;72.45;100322.78;5063612;28;20825;-58
2022/04/24 03:54:53;;;;;;;10.40;6.47;;;;;;;7.49;72.46;100325.63;5045833;28;20047;-58
2022/04/24 03:57:18;;;;;;;11.18;6.50;;;;;;;7.52;72.14;100325.44;5063574;28;20040;-58
2022/04/24 03:59:43;;;;;;;12.70;7.35;;;;;;;7.46;72.63;100320.50;5064047;28;20036;-58
2022/04/24 04:02:09;;;;;;;10.75;6.20;;;;;;;7.42;72.43;100331.38;5063986;28;20954;-58
2022/04/24 04:04:34;;;;;;;9.55;6.10;;;;;;;7.51;72.07;100331.69;5063789;28;20040;-58
2022/04/24 04:07:00;;;;;;;10.13;6.10;;;;;;;7.55;71.83;100321.75;5064154;28;20044;-59
2022/04/24 04:09:25;;;;;;;11.25;7.30;;;;;;;7.47;72.09;100326.66;5064507;28;20067;-58
2022/04/24 04:11:51;;;;;;;11.70;6.35;;;;;;;7.42;72.76;100324.25;5065042;28;20094;-58
2022/04/24 04:14:17;;;;;;;11.77;6.60;;;;;;;7.53;71.29;100323.66;5064524;28;20098;-58
2022/04/24 04:16:43;;;;;;;10.77;6.82;;;;;;;7.50;71.53;100327.31;5064120;28;20048;-58
2022/04/24 04:19:08;;;;;;;10.55;6.90;;;;;;;7.43;71.98;100326.00;5063718;28;20025;-58
2022/04/24 04:21:34;;;;;;;8.98;5.65;;;;;;;7.34;72.65;100331.84;5063908;28;20564;-58
2022/04/24 04:23:59;;;;;;;10.95;6.50;;;;;;;7.34;72.31;100325.69;5064155;28;20044;-58
2022/04/24 04:26:25;;;;;;;11.35;6.60;;;;;;;7.21;72.41;100333.47;5062310;28;20044;-58
2022/04/24 04:28:51;;;;;;;10.43;5.93;;;;;;;7.23;72.69;100334.25;5062225;28;20090;-58
2022/04/24 04:31:17;;;;;;;9.68;6.00;;;;;;;7.27;72.95;100327.81;5063911;28;20039;-58
2022/04/24 04:33:43;;;;;;;13.98;6.43;;;;;;;7.37;72.24;100328.13;5045367;28;20052;-57
2022/04/24 04:36:08;;;;;;;10.60;6.72;;;;;;;7.56;71.84;100326.13;5063551;28;20040;-58
2022/04/24 04:38:34;;;;;;;9.20;6.18;;;;;;;7.70;70.77;100327.94;5063061;28;20036;-58
2022/04/24 04:41:00;;;;;;;8.57;5.50;;;;;;;7.77;70.37;100330.13;5063225;28;20056;-58
2022/04/24 04:43:29;;;;;;;10.68;5.85;;;;;;;7.94;70.12;100328.28;5064915;28;20118;-58
2022/04/24 04:45:55;;;;;;;12.55;6.60;;;;;;;8.07;69.60;100336.34;5062150;28;20040;-58
2022/04/24 04:48:20;;;;;;;10.25;5.88;;;;;;;7.99;69.30;100348.28;5063184;28;20213;-58
2022/04/24 04:50:46;;;;;;;8.25;5.88;;;;;;;8.25;68.69;100343.19;5064032;28;20444;-58
2022/04/24 04:53:11;;;;;;;9.98;5.63;;;;;;;8.32;68.32;100345.34;5063172;28;20055;-58
2022/04/24 04:55:36;;;;;;;9.27;6.50;;;;;;;8.37;67.50;100345.09;5063030;28;20037;-57
2022/04/24 04:58:02;;;;;;;7.35;4.90;;;;;;;8.40;67.07;100349.38;5062937;28;20709;-58
2022/04/24 05:00:28;;;;;;;8.73;5.72;;;;;;;8.37;67.25;100349.56;5062620;28;20048;-58
2022/04/24 05:02:53;;;;;;;7.53;5.35;;;;;;;8.12;67.66;100356.34;5062839;28;20044;-58
2022/04/24 05:05:19;;;;;;;8.80;5.18;;;;;;;8.44;66.89;100357.06;5062208;28;20063;-58
2022/04/24 05:07:44;;;;;;;12.07;5.20;;;;;;;8.44;66.98;100354.41;5062716;28;20401;-58
2022/04/24 05:10:10;;;;;;;9.55;5.80;;;;;;;8.46;66.56;100349.84;5061738;28;20056;-58
2022/04/24 05:12:35;;;;;;;12.98;5.68;;;;;;;8.56;66.65;100368.72;5043694;28;20677;-58
2022/04/24 05:15:05;;;;;;;7.65;5.38;;;;;;;8.66;65.98;100366.34;5061866;28;20032;-58
2022/04/24 05:17:32;;;;;;;8.50;5.47;;;;;;;8.82;65.43;100359.09;5061921;28;20060;-60
2022/04/24 05:19:57;;;;;;;7.97;5.15;;;;;;;8.84;65.26;100365.19;5061241;28;20120;-58
2022/04/24 05:22:23;;;;;;;8.20;5.13;;;;;;;8.85;65.26;100371.34;5062449;28;20754;-58
2022/04/24 05:24:49;;;;;;;6.88;4.50;;;;;;;9.10;63.94;100362.66;5061023;28;20105;-58
2022/04/24 05:27:15;;;;;;;9.95;4.95;;;;;;;8.95;65.09;100380.44;5061886;28;20044;-58
2022/04/24 05:29:40;;;;;;;8.60;4.93;;;;;;;9.11;64.13;100375.00;5061630;28;20040;-58
2022/04/24 05:32:06;;;;;;;8.40;4.45;;;;;;;9.00;63.84;100379.19;5059478;28;20377;-58
2022/04/24 05:34:32;;;;;;;9.02;5.18;;;;;;;8.99;63.96;100380.16;5062127;28;20083;-58
2022/04/24 05:36:57;;;;;;;6.25;4.65;;;;;;;8.77;64.09;100388.63;5061236;28;20468;-58
2022/04/24 05:39:22;;;;;;;8.20;5.00;;;;;;;8.93;64.18;100379.69;5060384;28;20031;-58
2022/04/24 05:41:48;;;;;;;10.40;4.85;;;;;;;9.14;63.73;100388.09;5061100;28;20048;-58
2022/04/24 05:44:13;;;;;;;8.23;5.05;;;;;;;9.27;63.24;100387.19;5061130;28;20045;-58
2022/04/24 05:46:39;;;;;;;9.48;5.03;;;;;;;9.37;62.64;100390.09;5061161;28;20087;-58
2022/04/24 05:49:04;;;;;;;7.90;4.53;;;;;;;9.39;62.64;100393.53;5061435;28;20047;-58
2022/04/24 05:51:29;;;;;;;10.30;5.32;;;;;;;9.69;62.32;100390.66;5061922;28;20413;-58
2022/04/24 05:53:55;;;;;;;9.35;5.13;;;;;;;9.77;61.53;100390.13;5061444;28;20245;-58
2022/04/24 05:56:21;;;;;;;5.53;4.22;;;;;;;9.77;61.58;100382.13;5061143;28;20048;-58
2022/04/24 05:58:46;;;;;;;5.68;4.18;;;;;;;9.83;61.33;100384.38;5061104;28;20041;-58
2022/04/24 06:01:12;;;;;;;8.05;4.95;;;;;;;9.99;59.93;100385.06;5061250;28;20047;-58
2022/04/24 06:03:40;;;;;;;6.85;4.75;;;;;;;9.84;60.71;100386.97;5061746;28;20506;-58
2022/04/24 06:06:07;;;;;;;6.32;4.45;;;;;;;10.01;60.37;100393.78;5061611;28;20040;-58
2022/04/24 06:08:32;;;;;;;5.65;4.65;;;;;;;10.16;59.24;100396.38;5061280;28;20028;-58
2022/04/24 06:10:58;;;;;;;7.70;4.30;;;;;;;10.16;59.43;100391.88;5062426;28;20051;-58
2022/04/24 06:13:23;;;;;;;8.50;4.78;;;;;;;10.36;59.32;100385.22;5061914;28;20044;-58
2022/04/24 06:15:48;;;;;;;7.95;5.00;;;;;;;10.33;59.71;100378.25;5061147;28;20040;-58
2022/04/24 06:18:14;;;;;;;13.45;6.28;;;;;;;10.44;58.96;100385.53;5061451;28;20024;-58
2022/04/24 06:20:39;;;;;;;8.02;4.60;;;;;;;10.58;59.04;100381.88;5060818;28;20048;-58
2022/04/24 06:23:05;;;;;;;11.10;5.00;;;;;;;10.41;59.08;100391.06;5061093;28;20630;-58
2022/04/24 06:25:32;;;;;;;5.43;3.55;;;;;;;10.41;59.77;100380.41;5059498;28;20083;-58
2022/04/24 06:27:58;;;;;;;6.03;4.57;;;;;;;10.56;58.84;100394.47;5060494;28;20056;-58
2022/04/24 06:30:26;;;;;;;9.60;4.90;;;;;;;10.66;58.31;100387.53;5061494;28;20044;-58
2022/04/24 06:32:52;;;;;;;9.35;4.55;;;;;;;10.73;58.11;100385.25;5060306;28;20066;-58
2022/04/24 06:35:18;;;;;;;6.32;4.78;;;;;;;10.70;57.81;100386.34;5041455;28;20043;-58
2022/04/24 06:37:46;;;;;;;6.05;4.68;;;;;;;10.86;57.80;100399.44;5042360;28;20055;-58
2022/04/24 06:40:13;;;;;;;6.47;4.40;;;;;;;10.76;58.38;100388.56;5058812;28;20060;-58
2022/04/24 06:42:54;;;;;;;6.85;5.25;;;;;;;11.08;57.79;100391.56;5060675;28;20053;-58
2022/04/24 06:45:34;;;;;;;9.27;5.22;;;;;;;11.30;56.99;100390.03;5060325;28;20052;-58
2022/04/24 06:48:11;;;;;;;7.32;4.93;;;;;;;11.26;57.34;100385.88;5060406;28;20052;-58
2022/04/24 06:50:39;;;;;;;8.77;4.93;;;;;;;11.43;56.32;100396.16;5059326;28;20075;-58
2022/04/24 06:53:09;;;;;;;5.57;4.65;;;;;;;11.81;56.47;100392.44;5054371;28;20040;-58
2022/04/24 06:55:37;;;;;;;6.65;4.70;;;;;;;11.68;55.68;100396.03;5056050;28;20053;-58
2022/04/24 06:58:04;;;;;;;6.55;4.78;;;;;;;11.62;56.50;100395.63;5058225;28;20083;-58
2022/04/24 07:00:31;;;;;;;6.28;4.95;;;;;;;11.53;56.20;100393.66;5061010;28;20036;-58
2022/04/24 07:02:56;;;;;;;7.70;4.57;;;;;;;12.17;56.11;100392.31;5060527;28;20044;-58
2022/04/24 07:05:26;;;;;;;5.85;4.68;;;;;;;11.41;56.59;100382.91;5053994;28;20401;-58
2022/04/24 07:07:52;;;;;;;7.03;4.85;;;;;;;11.61;55.87;100396.59;5059135;28;20098;-57
2022/04/24 07:10:18;;;;;;;7.78;4.57;;;;;;;11.66;57.10;100391.78;5058887;28;20036;-57
2022/04/24 07:12:48;;;;;;;5.78;4.25;;;;;;;11.76;55.94;100386.59;5056650;28;20488;-58
2022/04/24 07:15:14;;;;;;;8.10;4.95;;;;;;;11.66;55.93;100397.13;5055868;28;20048;-57
2022/04/24 07:17:43;;;;;;;7.30;4.85;;;;;;;12.07;55.58;100396.66;5058358;28;20147;-57
2022/04/24 07:20:10;;;;;;;7.13;4.63;;;;;;;12.11;54.62;100389.28;5059353;28;20055;-57
2022/04/24 07:22:43;;;;;;;6.07;4.38;;;;;;;12.03;54.99;100407.72;5040203;28;20060;-57
2022/04/24 07:25:09;;;;;;;9.00;5.70;;;;;;;11.85;55.35;100413.50;5043444;28;20113;-57
2022/04/24 07:27:34;;;;;;;8.57;4.80;;;;;;;12.48;55.64;100403.31;5044915;28;20040;-57
2022/04/24 07:30:00;;;;;;;7.65;5.20;;;;;;;12.29;55.77;100403.03;5028782;28;20044;-57
2022/04/24 07:32:25;;;;;;;6.15;4.65;;;;;;;12.63;54.63;100404.75;5043839;28;20101;-57
2022/04/24 07:34:50;;;;;;;6.20;5.13;;;;;;;12.01;54.63;100423.03;5057707;28;20036;-57
2022/04/24 07:37:17;;;;;;;8.05;5.55;;;;;;;12.17;55.00;100408.34;5063309;28;20056;-57
2022/04/24 07:39:42;;;;;;;8.15;5.03;;;;;;;12.61;54.32;100400.53;5068956;28;20063;-57
2022/04/24 07:42:07;;;;;;;7.18;4.82;;;;;;;12.81;54.64;100407.81;5068091;28;20377;-57
2022/04/24 07:44:33;;;;;;;10.32;5.55;;;;;;;12.88;53.95;100408.16;5058118;28;20048;-57
2022/04/24 07:46:58;;;;;;;6.15;4.53;;;;;;;12.97;53.86;100404.75;5037900;28;20032;-57
2022/04/24 07:49:24;;;;;;;5.78;4.32;;;;;;;12.55;53.38;100412.56;5038523;28;20044;-57
2022/04/24 07:51:49;;;;;;;7.78;5.05;;;;;;;12.82;54.44;100406.00;5057683;28;20764;-57
2022/04/24 07:54:15;;;;;;;5.88;4.22;;;;;;;12.56;54.58;100410.72;5056828;28;20562;-58
2022/04/24 07:56:41;;;;;;;5.93;4.90;;;;;;;12.81;52.82;100410.50;5038981;28;20040;-57
2022/04/24 07:59:06;;;;;;;7.32;4.40;;;;;;;12.63;54.19;100398.56;5057914;28;20044;-57
2022/04/24 08:01:31;;;;;;;7.78;5.30;;;;;;;13.53;55.18;100406.50;5059571;28;20052;-57
2022/04/24 08:03:57;;;;;;;9.98;5.18;;;;;;;13.28;54.88;100405.84;5059881;28;20109;-57
2022/04/24 08:06:22;;;;;;;6.78;4.72;;;;;;;13.03;53.45;100401.59;5057810;28;20044;-57
2022/04/24 08:08:48;;;;;;;8.02;5.25;;;;;;;13.12;52.66;100411.56;5057831;28;20037;-57
2022/04/24 08:11:13;;;;;;;7.88;5.05;;;;;;;12.88;53.65;100406.34;5039240;28;20092;-57
2022/04/24 08:13:39;;;;;;;8.75;5.38;;;;;;;13.61;54.54;100406.72;5060285;28;20036;-57
2022/04/24 08:16:05;;;;;;;7.03;4.70;;;;;;;14.02;52.73;100408.59;5040367;28;20499;-56
2022/04/24 08:18:30;;;;;;;7.78;5.43;;;;;;;13.80;51.89;100401.50;5058527;28;20036;-56
2022/04/24 08:20:56;;;;;;;7.32;5.47;;;;;;;13.77;51.01;100408.97;5059827;28;20040;-56
2022/04/24 08:23:21;;;;;;;6.95;5.13;;;;;;;13.98;53.20;100399.13;5061833;28;20040;-57
2022/04/24 08:25:47;;;;;;;6.63;5.10;;;;;;;13.74;52.27;100402.03;5026864;28;20513;-56
2022/04/24 08:28:14;;;;;;;6.20;5.05;;;;;;;13.99;52.21;100409.69;5061683;28;20449;-56
2022/04/24 08:30:42;;;;;;;8.27;5.72;;;;;;;13.71;51.65;100411.19;5062604;28;20048;-56
2022/04/24 08:33:08;;;;;;;8.27;5.22;;;;;;;13.34;51.39;100408.00;5043274;28;20036;-56
2022/04/24 08:35:34;;;;;;;9.02;5.65;;;;;;;13.47;51.54;100402.50;5062217;28;20044;-56
2022/04/24 08:37:59;;;;;;;9.63;5.88;;;;;;;13.40;51.33;100420.91;5061365;28;20382;-56
2022/04/24 08:40:25;;;;;;;13.13;7.03;;;;;;;13.80;54.33;100416.72;5060806;28;20067;-57
2022/04/24 08:42:57;;;;;;;8.35;5.93;;;;;;;13.76;52.40;100421.53;5061839;28;20128;-57
2022/04/24 08:45:28;;;;;;;8.38;5.35;;;;;;;13.46;51.78;100438.31;5061391;28;20036;-57
2022/04/24 08:47:54;;;;;;;9.10;5.15;;;;;;;13.95;52.71;100418.97;5061241;28;20048;-57
2022/04/24 08:50:20;;;;;;;12.60;5.13;;;;;;;13.60;52.71;100429.09;5061334;28;20136;-57
2022/04/24 08:52:47;;;;;;;6.80;5.22;;;;;;;13.90;52.43;100423.03;5061065;28;20052;-57
2022/04/24 08:55:12;;;;;;;8.38;5.68;;;;;;;14.36;53.04;100424.50;5059332;28;20037;-56
2022/04/24 08:57:38;;;;;;;8.68;5.38;;;;;;;14.11;52.08;100425.75;5060469;28;20040;-56
2022/04/24 09:00:08;;;;;;;9.18;5.55;;;;;;;13.93;52.01;100420.09;5060525;28;20793;-56
2022/04/24 09:02:35;;;;;;;7.90;5.78;;;;;;;14.40;52.85;100428.59;5060329;28;20568;-56
2022/04/24 09:05:00;;;;;;;6.93;5.28;;;;;;;14.22;51.40;100423.00;5042420;28;20044;-59
2022/04/24 09:07:31;;;;;;;9.05;5.43;;;;;;;14.17;51.20;100430.59;5060707;28;20060;-56
2022/04/24 09:09:58;;;;;;;8.68;5.78;;;;;;;14.10;51.20;100424.03;5060227;28;20040;-56
2022/04/24 09:12:25;;;;;;;7.80;5.85;;;;;;;14.66;52.63;100416.50;5060289;28;20040;-55
2022/04/24 09:14:53;;;;;;;7.90;5.13;;;;;;;14.40;49.82;100428.59;5042034;28;20060;-56
2022/04/24 09:17:24;;;;;;;7.80;5.85;;;;;;;14.34;51.87;100429.97;5042121;28;20654;-56
2022/04/24 09:19:51;;;;;;;9.02;5.53;;;;;;;14.94;53.13;100422.97;5059885;28;20040;-56
2022/04/24 09:22:17;;;;;;;8.60;6.05;;;;;;;14.49;51.73;100422.47;5051851;28;20044;-55
2022/04/24 09:24:49;;;;;;;7.97;6.30;;;;;;;15.21;53.64;100414.31;5060319;28;20035;-56
2022/04/24 09:27:33;;;;;;;10.63;5.50;;;;;;;14.84;52.12;100423.91;5041946;28;20044;-55
2022/04/24 09:30:00;;;;;;;10.23;5.70;;;;;;;15.17;51.51;100418.25;5042058;28;20044;-55
2022/04/24 09:32:28;;;;;;;9.75;6.60;;;;;;;15.45;50.56;100416.59;5040417;28;20114;-56
2022/04/24 09:34:54;;;;;;;8.85;5.60;;;;;;;15.06;49.41;100428.22;5051373;28;20024;-55
2022/04/24 09:37:21;;;;;;;9.55;6.57;;;;;;;15.01;50.25;100397.28;5042495;28;20146;-56
2022/04/24 09:39:48;;;;;;;8.40;5.60;;;;;;;15.35;51.45;100417.56;5059955;28;20221;-56
2022/04/24 09:42:18;;;;;;;9.98;6.20;;;;;;;15.20;49.41;100423.34;5060004;28;20094;-56
2022/04/24 09:44:44;;;;;;;8.55;6.03;;;;;;;15.38;49.93;100422.69;5056769;28;20151;-56
2022/04/24 09:47:11;;;;;;;11.75;6.65;;;;;;;15.51;51.10;100416.06;5058442;28;20090;-55
2022/04/24 09:49:41;;;;;;;12.00;6.50;;;;;;;15.63;49.77;100419.50;5040843;28;20717;-55
2022/04/24 09:52:08;;;;;;;9.98;6.63;;;;;;;15.46;49.60;100420.13;5060211;28;20036;-56
2022/04/24 09:54:35;;;;;;;8.43;6.38;;;;;;;14.71;49.41;100419.66;5059907;28;20072;-56
2022/04/24 09:57:02;;;;;;;7.40;5.50;;;;;;;14.84;49.76;100415.88;5041026;28;20083;-56
2022/04/24 09:59:27;;;;;;;11.85;6.07;;;;;;;15.40;48.91;100418.00;5060118;28;20040;-56
2022/04/24 10:01:53;;;;;;;9.13;6.22;;;;;;;15.41;50.32;100422.38;5041383;28;20518;-55
2022/04/24 10:04:19;;;;;;;10.00;5.85;;;;;;;15.11;49.88;100413.44;5059715;28;20045;-56
2022/04/24 10:06:46;;;;;;;13.07;6.50;;;;;;;15.34;49.28;100411.34;5059426;28;20032;-55
2022/04/24 10:09:13;;;;;;;8.35;5.63;;;;;;;15.26;49.72;100413.88;5059594;28;20083;-56
2022/04/24 10:11:39;;;;;;;8.30;5.97;;;;;;;15.76;50.35;100409.34;5059779;28;20048;-56
2022/04/24 10:14:11;;;;;;;9.02;6.00;;;;;;;15.85;47.97;100407.59;5041671;28;20101;-56
2022/04/24 10:16:51;;;;;;;7.72;5.60;;;;;;;16.11;49.71;100413.25;5058967;28;20044;-56
2022/04/24 10:19:27;;;;;;;8.55;6.00;;;;;;;15.84;49.10;100419.34;5024851;28;20132;-56
2022/04/24 10:22:26;;;;;;;7.78;5.75;;;;;;;15.62;47.88;100417.78;5057182;28;20125;-56
2022/04/24 10:25:00;;;;;;;7.90;5.75;;;;;;;16.35;49.26;100423.56;5056809;28;20066;-56
2022/04/24 10:27:47;;;;;;;8.30;5.38;;;;;;;15.43;47.49;100426.66;5058161;28;20055;-56
2022/04/24 10:30:22;;;;;;;7.55;5.25;;;;;;;15.68;47.49;100419.06;5050955;28;20512;-56
2022/04/24 10:32:49;;;;;;;8.68;5.35;;;;;;;16.16;46.53;100442.41;5058461;28;20028;-56
2022/04/24 10:35:19;;;;;;;9.15;6.03;;;;;;;15.87;48.24;100429.00;5058713;28;20037;-55
2022/04/24 10:37:51;;;;;;;5.78;4.97;;;;;;;15.71;46.16;100427.72;5058616;28;20086;-56
2022/04/24 10:40:19;;;;;;;10.20;5.57;;;;;;;16.30;47.26;100434.75;5058352;28;20109;-56
2022/04/24 10:42:46;;;;;;;7.18;5.55;;;;;;;15.79;45.69;100435.06;5057706;28;20566;-56
2022/04/24 10:45:15;;;;;;;8.77;5.30;;;;;;;15.80;47.53;100434.06;5040428;28;20052;-56
2022/04/24 10:47:50;;;;;;;8.23;5.93;;;;;;;16.45;47.75;100423.53;5058236;28;20055;-56
2022/04/24 10:50:20;;;;;;;6.78;5.07;;;;;;;16.32;46.14;100429.25;5055409;28;20118;-55
2022/04/24 10:52:53;;;;;;;6.72;4.53;;;;;;;16.01;46.81;100415.09;5036807;28;20072;-56
2022/04/24 10:55:23;;;;;;;7.57;4.97;;;;;;;15.90;48.44;100426.00;5059213;28;20580;-56
2022/04/24 10:57:57;;;;;;;6.05;4.55;;;;;;;15.73;46.85;100419.50;5023510;28;20055;-56
2022/04/24 11:00:28;;;;;;;8.25;4.82;;;;;;;16.64;49.90;100423.47;5058990;28;20119;-56
2022/04/24 11:03:08;;;;;;;8.07;5.15;;;;;;;16.09;45.95;100431.38;5055840;28;20039;-56
2022/04/24 11:05:40;;;;;;;8.32;5.13;;;;;;;16.13;44.78;100430.13;5058398;28;20059;-56
2022/04/24 11:08:07;;;;;;;7.35;4.13;;;;;;;16.08;46.08;100424.31;5025171;28;20048;-56
2022/04/24 11:10:41;;;;;;;7.45;5.13;;;;;;;15.83;44.96;100419.50;5041531;28;20049;-56
2022/04/24 11:13:18;;;;;;;8.50;6.07;;;;;;;16.27;46.57;100420.75;5059644;28;20040;-56
2022/04/24 11:15:45;;;;;;;6.15;4.60;;;;;;;16.16;46.87;100421.72;5043267;28;20040;-56
2022/04/24 11:18:22;;;;;;;7.40;4.95;;;;;;;16.38;45.78;100415.19;5058322;28;21363;-56
2022/04/24 11:20:55;;;;;;;7.07;4.38;;;;;;;15.98;45.10;100418.94;5054616;28;20040;-56
2022/04/24 11:23:24;;;;;;;11.13;4.97;;;;;;;16.07;46.35;100414.56;5055122;28;20140;-56
2022/04/24 11:25:52;;;;;;;6.72;4.90;;;;;;;16.37;46.84;100418.03;5040403;28;20944;-56